Time;durP1;ratioP1;P1;durP2;ratioP2;P2;SDS_P1;SDS_P2;PMS_P1;PMS_P2;Temp;Humidity;BMP_temperature;BMP_pressure;BME280_temperature;BME280_humidity;BME280_pressure;Samples;Min_cycle;Max_cycle;Signal;HPM_P1;HPM_P2
2021/10/02 00:02:17;;;;;;;8.55;6.63;;;;;;;20.94;59.04;98772.19;5033357;28;20481;-49
2021/10/02 00:37:37;;;;;;;11.57;8.02;;;;;;;20.69;60.68;98779.09;5054519;28;20132;-49
2021/10/02 00:45:32;;;;;;;13.27;7.97;;;;;;;20.82;60.37;98759.09;5054335;28;20247;-49
2021/10/02 00:47:58;;;;;;;10.15;8.65;;;;;;;20.83;60.47;98751.94;5052967;28;20118;-50
2021/10/02 00:50:24;;;;;;;11.98;8.18;;;;;;;20.83;60.33;98755.38;5054166;28;20024;-49
2021/10/02 00:52:51;;;;;;;11.25;8.57;;;;;;;20.78;60.46;98758.03;5052869;28;20039;-49
2021/10/02 00:55:17;;;;;;;9.85;7.13;;;;;;;20.69;60.78;98754.31;5054058;28;20014;-49
2021/10/02 00:57:43;;;;;;;9.52;8.52;;;;;;;20.58;61.34;98747.31;5054011;28;20512;-49
2021/10/02 01:00:09;;;;;;;15.10;9.40;;;;;;;20.49;61.82;98755.84;5054038;28;20055;-49
2021/10/02 01:02:51;;;;;;;12.75;8.57;;;;;;;20.61;61.24;98752.97;5052979;28;20040;-50
2021/10/02 01:05:42;;;;;;;14.02;9.35;;;;;;;20.63;61.63;98750.81;5053952;28;20052;-49
2021/10/02 01:08:26;;;;;;;13.77;9.50;;;;;;;20.61;61.88;98747.63;5052230;28;20406;-49
2021/10/02 01:11:21;;;;;;;15.60;8.98;;;;;;;20.65;61.58;98747.91;5053598;28;20098;-49
2021/10/02 01:14:18;;;;;;;12.65;10.20;;;;;;;20.65;61.88;98746.03;5053758;28;20056;-49
2021/10/02 01:16:48;;;;;;;18.10;9.50;;;;;;;20.73;61.45;98748.16;5052679;28;20095;-49
2021/10/02 01:19:51;;;;;;;14.07;8.10;;;;;;;20.72;61.44;98740.44;5052330;28;20036;-49
2021/10/02 01:22:46;;;;;;;13.45;9.10;;;;;;;20.67;61.48;98740.44;5053566;28;20032;-49
2021/10/02 01:25:37;;;;;;;10.23;9.00;;;;;;;20.58;61.84;98744.66;5052029;28;20041;-49
2021/10/02 01:28:07;;;;;;;11.65;8.13;;;;;;;20.53;61.58;98740.13;5053527;28;20064;-49
2021/10/02 01:30:56;;;;;;;15.85;10.55;;;;;;;20.42;62.24;98736.63;5052400;28;20064;-49
2021/10/02 01:33:42;;;;;;;15.18;8.98;;;;;;;20.47;62.11;98733.97;5053420;28;20025;-49
2021/10/02 01:47:20;;;;;;;15.23;9.10;;;;;;;20.38;62.06;98724.09;5053461;28;19915;-49
2021/10/02 01:49:50;;;;;;;17.38;12.40;;;;;;;20.30;62.47;98728.88;5051817;28;20025;-49
2021/10/02 01:52:32;;;;;;;17.20;14.13;;;;;;;20.34;62.41;98721.13;5053080;28;20157;-49
2021/10/02 01:55:00;;;;;;;11.07;8.18;;;;;;;20.21;62.58;98721.66;5052993;28;20082;-49
2021/10/02 01:57:29;;;;;;;10.10;8.77;;;;;;;20.13;63.02;98706.97;5052899;28;20075;-49
2021/10/02 02:00:01;;;;;;;10.43;9.38;;;;;;;20.03;63.40;98723.72;5051591;28;20050;-49
2021/10/02 02:02:30;;;;;;;12.88;8.80;;;;;;;20.02;63.39;98708.81;5052933;28;20064;-49
2021/10/02 02:04:57;;;;;;;22.67;12.32;;;;;;;19.94;63.77;98714.63;5051524;28;20029;-49
2021/10/02 02:07:27;;;;;;;14.68;10.43;;;;;;;19.90;63.66;98709.03;5051405;28;20027;-49
2021/10/02 02:09:56;;;;;;;16.33;8.98;;;;;;;19.87;64.02;98714.06;5052743;28;20157;-49
2021/10/02 02:12:22;;;;;;;15.98;8.73;;;;;;;19.75;64.25;98712.41;5051303;28;20391;-49
2021/10/02 02:14:50;;;;;;;17.92;9.05;;;;;;;19.63;64.86;98701.16;5052535;28;20029;-49
2021/10/02 02:17:21;;;;;;;17.27;11.02;;;;;;;19.57;64.89;98696.88;5052480;28;20051;-49
2021/10/02 02:19:49;;;;;;;15.25;9.88;;;;;;;19.49;65.25;98695.50;5052564;28;20025;-49
2021/10/02 02:22:15;;;;;;;18.30;12.80;;;;;;;19.41;65.45;98703.97;5051854;28;20021;-49
2021/10/02 02:24:41;;;;;;;13.52;9.95;;;;;;;19.23;66.08;98699.84;5052198;28;20032;-48
2021/10/02 02:27:08;;;;;;;12.93;9.75;;;;;;;19.18;66.30;98702.50;5052316;28;20025;-49
2021/10/02 02:29:34;;;;;;;12.93;9.32;;;;;;;19.15;66.81;98687.03;5052343;28;20110;-49
2021/10/02 02:32:01;;;;;;;18.50;10.75;;;;;;;19.19;66.74;98687.34;5034388;28;20522;-49
2021/10/02 02:34:28;;;;;;;15.93;13.95;;;;;;;19.28;66.54;98681.28;5050908;28;20031;-49
2021/10/02 02:36:56;;;;;;;21.15;16.23;;;;;;;19.32;66.45;98689.56;5052102;28;20036;-49
2021/10/02 02:39:23;;;;;;;15.73;11.98;;;;;;;19.30;66.13;98687.13;5050851;28;20036;-49
2021/10/02 02:41:49;;;;;;;21.27;18.23;;;;;;;19.16;66.55;98670.81;5052190;28;20499;-52
2021/10/02 02:44:15;;;;;;;26.35;19.15;;;;;;;19.10;66.76;98673.72;5052133;28;20025;-49
2021/10/02 02:46:41;;;;;;;17.23;12.80;;;;;;;19.21;66.59;98670.03;5052020;28;20517;-49
2021/10/02 02:49:19;;;;;;;16.33;13.43;;;;;;;19.29;66.57;98672.22;5050728;28;20522;-49
2021/10/02 02:51:49;;;;;;;46.30;41.28;;;;;;;19.26;66.50;98662.09;5050740;28;20075;-49
2021/10/02 02:54:26;;;;;;;15.90;11.70;;;;;;;19.23;66.31;98669.78;5050728;28;20035;-49
2021/10/02 02:56:54;;;;;;;21.63;13.43;;;;;;;19.16;66.69;98670.03;5051926;28;20406;-49
2021/10/02 03:00:07;;;;;;;18.30;12.25;;;;;;;19.07;66.96;98661.72;5050563;28;20056;-49
2021/10/02 03:02:38;;;;;;;19.23;13.10;;;;;;;19.03;67.12;98663.28;5044362;28;20025;-49
2021/10/02 03:05:06;;;;;;;16.77;13.20;;;;;;;18.93;67.39;98674.69;5051839;28;20029;-49
2021/10/02 03:07:37;;;;;;;22.20;14.27;;;;;;;18.89;67.71;98670.91;5050456;28;20028;-49
2021/10/02 03:10:03;;;;;;;18.75;13.00;;;;;;;18.91;67.80;98670.66;5051772;28;20036;-49
2021/10/02 03:12:36;;;;;;;16.58;12.05;;;;;;;18.96;67.83;98674.16;5051692;28;20021;-49
2021/10/02 03:15:04;;;;;;;19.00;15.05;;;;;;;18.86;67.95;98674.06;5050400;28;20414;-49
2021/10/02 03:17:31;;;;;;;17.42;14.02;;;;;;;18.84;68.07;98684.16;5051735;28;20017;-49
2021/10/02 03:19:59;;;;;;;18.77;14.40;;;;;;;18.80;68.14;98688.38;5051641;28;20403;-49
2021/10/02 03:22:28;;;;;;;17.15;12.88;;;;;;;18.79;68.45;98678.78;5050332;28;20221;-49
2021/10/02 03:24:55;;;;;;;15.00;13.05;;;;;;;18.83;68.39;98685.22;5051341;28;20072;-49
2021/10/02 03:27:21;;;;;;;18.80;13.30;;;;;;;18.90;68.35;98693.78;5050332;28;20145;-49
2021/10/02 03:29:48;;;;;;;19.55;14.35;;;;;;;19.11;67.87;98693.94;5051549;28;20057;-49
2021/10/02 03:32:15;;;;;;;24.45;14.75;;;;;;;19.16;67.44;98700.09;5050175;28;20029;-49
2021/10/02 03:34:42;;;;;;;20.67;13.90;;;;;;;19.23;67.30;98710.50;5055084;28;20017;-49
2021/10/02 03:37:08;;;;;;;237.00;214.00;;;;;;;19.25;67.44;98688.97;5055841;28;20493;-49
2021/10/02 03:39:35;;;;;;;82.15;70.10;;;;;;;19.35;66.81;98700.47;5055535;28;20096;-49
2021/10/02 03:42:09;;;;;;;40.25;33.60;;;;;;;19.23;67.07;98701.72;5055507;28;20241;-49
2021/10/02 03:44:35;;;;;;;115.95;102.43;;;;;;;19.18;66.97;98704.38;5055510;28;20071;-49
2021/10/02 03:47:01;;;;;;;28.05;22.58;;;;;;;19.15;66.81;98708.31;5055381;28;20032;-49
2021/10/02 03:49:29;;;;;;;74.38;66.60;;;;;;;19.16;67.21;98708.06;5054105;28;20025;-49
2021/10/02 03:51:55;;;;;;;26.65;20.48;;;;;;;19.22;66.86;98698.28;5054015;28;20032;-49
2021/10/02 03:54:20;;;;;;;24.17;15.77;;;;;;;19.28;66.69;98707.09;5055259;28;20357;-49
2021/10/02 03:56:46;;;;;;;24.27;14.23;;;;;;;19.35;66.47;98705.00;5055253;28;20032;-49
2021/10/02 03:59:12;;;;;;;36.47;32.92;;;;;;;19.52;66.14;98710.16;5055535;28;20025;-49
2021/10/02 04:01:37;;;;;;;322.38;255.07;;;;;;;19.69;65.75;98702.78;5053814;28;20029;-48
2021/10/02 04:04:06;;;;;;;34.50;23.42;;;;;;;19.82;65.26;98698.88;5055103;28;20021;-49
2021/10/02 04:06:31;;;;;;;16.63;13.20;;;;;;;19.92;64.82;98700.75;5054998;28;20029;-49
2021/10/02 04:08:57;;;;;;;19.80;13.65;;;;;;;19.93;64.69;98694.38;5054957;28;20032;-48
2021/10/02 04:11:23;;;;;;;16.27;13.15;;;;;;;19.83;64.74;98697.00;5054985;28;20024;-48
2021/10/02 04:13:48;;;;;;;26.77;14.38;;;;;;;19.73;65.13;98697.78;5054944;28;20059;-49
2021/10/02 04:16:14;;;;;;;18.90;13.95;;;;;;;19.62;65.11;98699.56;5053851;28;20078;-49
2021/10/02 04:18:40;;;;;;;24.05;14.23;;;;;;;19.48;65.64;98701.09;5053568;28;20033;-49
2021/10/02 04:21:05;;;;;;;25.15;20.05;;;;;;;19.41;65.93;98698.63;5054825;28;20108;-49
2021/10/02 04:23:31;;;;;;;22.13;15.98;;;;;;;19.34;66.26;98693.56;5054777;28;20017;-49
2021/10/02 04:25:57;;;;;;;23.42;15.00;;;;;;;19.42;66.32;98700.25;5054396;28;20049;-49
2021/10/02 04:28:23;;;;;;;17.17;15.15;;;;;;;19.61;65.91;98697.16;5054755;28;20372;-49
2021/10/02 04:30:49;;;;;;;21.30;14.77;;;;;;;19.67;65.40;98693.44;5054634;28;20036;-49
2021/10/02 04:33:16;;;;;;;19.02;15.05;;;;;;;19.64;65.28;98693.94;5054864;28;20032;-49
2021/10/02 04:35:41;;;;;;;15.93;14.32;;;;;;;19.52;65.50;98700.31;5053232;28;20025;-49
2021/10/02 04:38:07;;;;;;;20.08;14.32;;;;;;;19.40;65.80;98702.38;5054547;28;20022;-49
2021/10/02 04:40:33;;;;;;;19.80;14.57;;;;;;;19.29;66.25;98704.16;5053072;28;20025;-49
2021/10/02 04:42:59;;;;;;;17.75;14.82;;;;;;;19.29;66.60;98706.81;5053109;28;20064;-49
2021/10/02 04:45:25;;;;;;;22.48;17.40;;;;;;;19.33;66.49;98699.91;5053711;28;20048;-49
2021/10/02 04:47:50;;;;;;;17.27;13.23;;;;;;;19.39;66.26;98700.75;5052940;28;20064;-49
2021/10/02 04:50:16;;;;;;;24.08;14.30;;;;;;;19.41;66.26;98703.16;5052937;28;20028;-49
2021/10/02 04:52:42;;;;;;;21.17;16.10;;;;;;;19.42;66.17;98700.25;5054213;28;20550;-49
2021/10/02 04:55:09;;;;;;;16.83;13.02;;;;;;;19.40;66.02;98701.56;5054086;28;20021;-49
2021/10/02 04:57:35;;;;;;;18.05;14.43;;;;;;;19.22;66.48;98700.13;5052812;28;20035;-49
2021/10/02 05:00:01;;;;;;;18.55;13.73;;;;;;;19.14;66.47;98688.91;5054031;28;20028;-49
2021/10/02 05:02:27;;;;;;;20.15;14.43;;;;;;;18.95;66.95;98696.50;5054027;28;20426;-49
2021/10/02 05:04:52;;;;;;;21.48;15.50;;;;;;;18.83;67.33;98703.03;5052674;28;20029;-49
2021/10/02 05:07:18;;;;;;;24.23;14.52;;;;;;;18.67;67.64;98700.22;5052601;28;20025;-49
2021/10/02 05:09:44;;;;;;;20.83;14.00;;;;;;;18.60;68.25;98698.81;5053893;28;20048;-49
2021/10/02 05:12:10;;;;;;;20.42;16.60;;;;;;;18.52;68.38;98692.91;5053900;28;20122;-49
2021/10/02 05:14:37;;;;;;;23.85;17.50;;;;;;;18.44;68.72;98696.03;5053761;28;20029;-48
2021/10/02 05:17:04;;;;;;;20.77;14.82;;;;;;;18.44;69.15;98700.53;5052398;28;20029;-48
2021/10/02 05:19:31;;;;;;;27.67;24.30;;;;;;;18.36;68.90;98704.44;5053676;28;20025;-49
2021/10/02 05:21:58;;;;;;;22.52;15.43;;;;;;;18.25;69.15;98714.16;5052400;28;20056;-49
2021/10/02 05:24:23;;;;;;;26.65;16.08;;;;;;;18.22;69.50;98705.91;5053641;28;20107;-49
2021/10/02 05:26:49;;;;;;;24.33;14.40;;;;;;;18.24;69.48;98714.41;5052035;28;20566;-49
2021/10/02 05:29:14;;;;;;;22.55;13.25;;;;;;;18.17;69.45;98712.75;5053562;28;20032;-49
2021/10/02 05:31:40;;;;;;;22.05;12.27;;;;;;;18.17;69.44;98714.63;5053393;28;20043;-49
2021/10/02 05:34:06;;;;;;;16.38;12.75;;;;;;;18.17;69.44;98707.44;5052082;28;20056;-49
2021/10/02 05:36:32;;;;;;;81.95;58.97;;;;;;;18.15;69.54;98704.22;5053320;28;20060;-49
2021/10/02 05:38:57;;;;;;;52.58;46.88;;;;;;;18.11;69.65;98705.78;5053337;28;20021;-49
2021/10/02 05:41:23;;;;;;;27.73;24.02;;;;;;;18.10;69.72;98701.50;5053348;28;20036;-49
2021/10/02 05:43:49;;;;;;;19.35;15.02;;;;;;;18.12;69.73;98704.72;5053272;28;20214;-49
2021/10/02 05:46:15;;;;;;;23.23;15.70;;;;;;;18.06;69.64;98699.59;5053205;28;20100;-48
2021/10/02 05:48:41;;;;;;;15.30;13.63;;;;;;;18.01;69.89;98687.09;5053169;28;20021;-49
2021/10/02 05:51:06;;;;;;;20.90;16.23;;;;;;;18.01;70.00;98688.91;5053421;28;20070;-49
2021/10/02 05:53:32;;;;;;;21.83;15.88;;;;;;;18.01;70.21;98691.56;5051765;28;20033;-49
2021/10/02 05:56:01;;;;;;;21.17;14.40;;;;;;;18.04;70.38;98697.19;5052686;28;20021;-49
2021/10/02 05:58:26;;;;;;;21.88;18.88;;;;;;;18.09;70.04;98691.94;5052391;28;20096;-49
2021/10/02 06:00:52;;;;;;;17.35;14.68;;;;;;;18.13;69.77;98701.03;5052857;28;20021;-49
2021/10/02 06:03:18;;;;;;;17.13;13.77;;;;;;;18.24;69.36;98695.81;5051515;28;20056;-49
2021/10/02 06:05:43;;;;;;;24.85;16.48;;;;;;;18.37;69.30;98687.44;5051455;28;20094;-49
2021/10/02 06:08:09;;;;;;;21.40;15.73;;;;;;;18.54;68.98;98682.03;5051566;28;20028;-49
2021/10/02 06:10:35;;;;;;;47.13;42.78;;;;;;;18.93;68.23;98680.00;5052702;28;20443;-49
2021/10/02 06:13:01;;;;;;;15.85;14.10;;;;;;;19.34;66.29;98676.78;5051364;28;20148;-49
2021/10/02 06:15:26;;;;;;;26.50;15.82;;;;;;;19.58;65.19;98671.84;5052598;28;20029;-49
2021/10/02 06:17:54;;;;;;;19.73;16.45;;;;;;;20.02;64.00;98660.84;5052588;28;20025;-48
2021/10/02 06:20:24;;;;;;;18.70;13.15;;;;;;;20.53;62.25;98655.59;5052577;28;20585;-49
2021/10/02 06:22:51;;;;;;;17.90;13.32;;;;;;;21.09;60.92;98657.47;5052503;28;20491;-49
2021/10/02 06:25:17;;;;;;;16.02;11.88;;;;;;;21.65;58.87;98653.03;5052183;28;20063;-49
2021/10/02 06:27:44;;;;;;;12.88;11.32;;;;;;;21.97;57.69;98649.94;5052386;28;20017;-49
2021/10/02 06:30:10;;;;;;;15.48;11.75;;;;;;;22.13;57.04;98653.31;5052295;28;20025;-49
2021/10/02 06:32:36;;;;;;;16.13;14.15;;;;;;;21.94;57.33;98645.94;5052374;28;20398;-49
2021/10/02 06:35:04;;;;;;;19.48;13.35;;;;;;;21.63;58.14;98661.34;5052212;28;20067;-49
2021/10/02 06:37:29;;;;;;;21.30;11.70;;;;;;;21.46;58.89;98666.19;5050890;28;20023;-49
2021/10/02 06:39:55;;;;;;;13.55;10.57;;;;;;;21.38;59.08;98653.38;5050894;28;20111;-49
2021/10/02 06:42:21;;;;;;;18.00;12.10;;;;;;;21.25;59.54;98658.22;5050849;28;20507;-49
2021/10/02 06:44:47;;;;;;;20.90;11.75;;;;;;;21.11;60.07;98668.66;5052080;28;20047;-49
2021/10/02 06:47:13;;;;;;;16.42;11.70;;;;;;;21.06;60.17;98679.31;5052110;28;20490;-49
2021/10/02 06:49:38;;;;;;;17.08;12.02;;;;;;;21.05;60.60;98676.94;5052320;28;20036;-49
2021/10/02 06:52:04;;;;;;;18.05;12.75;;;;;;;21.14;60.41;98681.44;5052003;28;20051;-49
2021/10/02 06:54:30;;;;;;;13.48;12.07;;;;;;;21.31;59.82;98667.03;5051940;28;20033;-49
2021/10/02 06:56:56;;;;;;;137.75;124.68;;;;;;;21.73;59.52;98671.16;5051946;28;20071;-49
2021/10/02 06:59:25;;;;;;;37.30;33.22;;;;;;;22.29;57.67;98662.88;5051894;28;20102;-49
2021/10/02 07:01:51;;;;;;;54.63;49.17;;;;;;;22.77;56.56;98658.78;5051803;28;20573;-49
2021/10/02 07:04:19;;;;;;;23.27;20.63;;;;;;;23.09;55.50;98660.91;5050486;28;20152;-49
2021/10/02 07:06:45;;;;;;;20.15;15.20;;;;;;;23.46;53.79;98662.94;5051829;28;20024;-50
2021/10/02 07:09:11;;;;;;;22.10;14.18;;;;;;;23.67;53.76;98665.38;5051514;28;20090;-49
2021/10/02 07:11:36;;;;;;;21.42;13.88;;;;;;;23.95;52.88;98670.94;5051705;28;20021;-49
2021/10/02 07:14:02;;;;;;;20.92;13.57;;;;;;;24.28;51.91;98672.59;5051674;28;20029;-49
2021/10/02 07:16:28;;;;;;;13.68;12.10;;;;;;;24.61;50.44;98672.69;5051637;28;20402;-49
2021/10/02 07:18:54;;;;;;;18.20;14.50;;;;;;;24.78;50.09;98665.97;5051679;28;20037;-49
2021/10/02 07:21:20;;;;;;;18.02;11.63;;;;;;;25.38;48.61;98666.00;5051641;28;20104;-49
2021/10/02 07:23:46;;;;;;;14.32;11.30;;;;;;;25.57;47.85;98648.97;5051615;28;20101;-49
2021/10/02 07:26:12;;;;;;;16.52;12.73;;;;;;;25.27;47.92;98657.34;5051375;28;20040;-49
2021/10/02 07:28:37;;;;;;;17.98;12.10;;;;;;;24.98;48.90;98632.59;5051621;28;20021;-49
2021/10/02 07:31:03;;;;;;;14.10;11.55;;;;;;;24.65;49.26;98633.44;5051819;28;20525;-49
2021/10/02 07:33:29;;;;;;;110.28;92.70;;;;;;;24.52;49.82;98629.59;5051625;28;20529;-50
2021/10/02 07:35:55;;;;;;;47.35;40.13;;;;;;;24.49;49.38;98632.06;5050117;28;20028;-49
2021/10/02 07:38:20;;;;;;;21.83;17.77;;;;;;;24.33;49.66;98626.16;5050196;28;20108;-50
2021/10/02 07:40:50;;;;;;;17.63;12.38;;;;;;;24.27;49.96;98619.28;5051507;28;20025;-49
2021/10/02 07:43:16;;;;;;;15.52;11.98;;;;;;;24.20;50.44;98616.94;5050178;28;20024;-49
2021/10/02 07:45:44;;;;;;;15.48;10.35;;;;;;;24.23;49.26;98610.22;5051407;28;20040;-50
2021/10/02 07:48:14;;;;;;;17.17;11.57;;;;;;;24.22;49.88;98600.56;5051410;28;20051;-50
2021/10/02 07:50:40;;;;;;;17.30;12.00;;;;;;;24.50;50.23;98613.00;5051364;28;20025;-49
2021/10/02 07:53:06;;;;;;;13.25;10.95;;;;;;;24.90;48.38;98601.88;5051367;28;20021;-49
2021/10/02 07:55:33;;;;;;;16.33;11.93;;;;;;;25.36;47.62;98597.53;5051274;28;20727;-49
2021/10/02 07:57:59;;;;;;;16.73;11.57;;;;;;;25.70;46.74;98603.25;5051334;28;20017;-49
2021/10/02 08:00:25;;;;;;;13.65;10.60;;;;;;;25.55;46.43;98598.19;5051257;28;20029;-49
2021/10/02 08:02:53;;;;;;;17.67;11.50;;;;;;;25.34;47.14;98600.53;5051259;28;20033;-50
2021/10/02 08:05:21;;;;;;;11.52;10.25;;;;;;;25.31;46.76;98593.88;5051268;28;20515;-50
2021/10/02 08:07:48;;;;;;;14.10;10.25;;;;;;;25.38;46.83;98595.34;5051233;28;20017;-50
2021/10/02 08:10:20;;;;;;;13.70;10.32;;;;;;;25.72;46.24;98600.28;5049925;28;20025;-50
2021/10/02 08:12:46;;;;;;;13.13;10.13;;;;;;;25.86;45.62;98605.63;5051259;28;20055;-49
2021/10/02 08:15:12;;;;;;;11.70;9.98;;;;;;;25.81;45.34;98609.19;5051110;28;20398;-49
2021/10/02 08:17:43;;;;;;;17.25;11.65;;;;;;;25.82;45.93;98618.06;5051006;28;20491;-50
2021/10/02 08:20:16;;;;;;;15.27;10.77;;;;;;;26.56;44.62;98615.03;5052040;28;20043;-49
2021/10/02 08:22:48;;;;;;;12.13;9.40;;;;;;;27.41;42.61;98603.41;5054829;28;20025;-50
2021/10/02 08:25:16;;;;;;;13.60;11.18;;;;;;;28.21;40.99;98617.44;5054521;28;20525;-49
2021/10/02 08:27:43;;;;;;;17.35;9.13;;;;;;;28.88;39.25;98613.34;5054685;28;20032;-50
2021/10/02 08:30:10;;;;;;;14.95;10.00;;;;;;;29.01;38.79;98608.06;5054681;28;20387;-50
2021/10/02 08:32:36;;;;;;;12.88;9.65;;;;;;;28.54;39.53;98599.97;5053289;28;20025;-50
2021/10/02 08:35:07;;;;;;;12.60;9.80;;;;;;;27.84;40.76;98595.34;5036527;28;20021;-50
2021/10/02 08:37:33;;;;;;;11.70;8.65;;;;;;;27.89;40.86;98599.84;5053164;28;20107;-49
2021/10/02 08:39:58;;;;;;;15.52;10.63;;;;;;;27.95;40.65;98601.28;5054504;28;20025;-49
2021/10/02 08:42:25;;;;;;;15.32;9.68;;;;;;;27.60;41.12;98600.41;5054460;28;20013;-50
2021/10/02 08:44:52;;;;;;;11.50;8.60;;;;;;;27.63;41.32;98603.28;5054390;28;20439;-50
2021/10/02 08:47:21;;;;;;;12.82;9.02;;;;;;;27.41;41.63;98601.47;5054333;28;20013;-49
2021/10/02 08:49:49;;;;;;;14.85;9.35;;;;;;;28.03;41.49;98603.16;5054237;28;20032;-49
2021/10/02 08:52:17;;;;;;;10.00;7.95;;;;;;;29.30;38.23;98604.63;5054187;28;20025;-50
2021/10/02 08:54:45;;;;;;;11.80;9.02;;;;;;;29.34;36.91;98599.34;5054099;28;20029;-49
2021/10/02 08:57:16;;;;;;;10.30;8.88;;;;;;;29.09;37.85;98604.53;5052837;28;20051;-50
2021/10/02 08:59:43;;;;;;;17.52;8.93;;;;;;;29.25;37.35;98599.41;5054106;28;20368;-49
2021/10/02 09:02:09;;;;;;;9.38;8.25;;;;;;;29.27;37.76;98610.66;5052733;28;20025;-50
2021/10/02 09:04:37;;;;;;;11.85;8.40;;;;;;;29.15;37.42;98592.44;5052655;28;20025;-49
2021/10/02 09:07:04;;;;;;;11.23;8.45;;;;;;;29.12;37.86;98589.59;5053944;28;20395;-50
2021/10/02 09:09:30;;;;;;;11.85;8.10;;;;;;;29.23;37.02;98577.31;5053936;28;20029;-50
2021/10/02 09:11:56;;;;;;;10.65;8.20;;;;;;;29.53;36.58;98567.25;5053903;28;20025;-50
2021/10/02 09:14:21;;;;;;;10.65;8.38;;;;;;;30.04;36.32;98556.38;5053732;28;20052;-50
2021/10/02 09:16:47;;;;;;;8.50;7.22;;;;;;;30.39;35.35;98561.47;5053758;28;20025;-50
2021/10/02 09:19:13;;;;;;;11.50;7.85;;;;;;;30.59;35.08;98543.59;5052496;28;20025;-50
2021/10/02 09:21:57;;;;;;;9.25;7.40;;;;;;;30.90;34.32;98555.81;5053739;28;20021;-50
2021/10/02 09:24:31;;;;;;;14.93;9.03;;;;;;;30.98;34.22;98542.13;5053841;28;20059;-50
2021/10/02 09:26:57;;;;;;;8.63;6.80;;;;;;;31.23;33.63;98542.13;5053561;28;20041;-50
2021/10/02 09:29:45;;;;;;;11.18;8.18;;;;;;;31.74;32.95;98542.50;5053668;28;20441;-50
2021/10/02 09:32:16;;;;;;;17.25;8.95;;;;;;;32.02;33.30;98534.38;5053411;28;20095;-50
2021/10/02 09:34:54;;;;;;;9.68;6.68;;;;;;;32.16;32.03;98535.91;5053358;28;20104;-50
2021/10/02 09:37:21;;;;;;;9.75;6.95;;;;;;;32.00;31.13;98533.16;5053518;28;20532;-50
2021/10/02 09:39:50;;;;;;;9.57;6.72;;;;;;;31.30;32.15;98534.22;5053329;28;20065;-50
2021/10/02 09:42:25;;;;;;;9.80;6.78;;;;;;;30.95;33.11;98542.03;5053333;28;20090;-50
2021/10/02 09:44:55;;;;;;;12.32;6.90;;;;;;;30.71;33.69;98535.47;5053275;28;20122;-50
2021/10/02 09:47:21;;;;;;;9.65;7.63;;;;;;;30.79;33.58;98529.13;5053214;28;20028;-50
2021/10/02 09:49:48;;;;;;;11.95;6.95;;;;;;;31.04;33.60;98529.94;5053210;28;20029;-50
2021/10/02 09:52:33;;;;;;;13.52;8.57;;;;;;;31.52;34.27;98529.44;5053150;28;20363;-50
2021/10/02 09:55:01;;;;;;;14.32;6.97;;;;;;;31.84;32.62;98528.44;5053002;28;20031;-50
2021/10/02 09:57:28;;;;;;;9.75;8.48;;;;;;;31.96;31.81;98533.00;5053005;28;20027;-50
2021/10/02 10:00:09;;;;;;;9.73;7.43;;;;;;;31.44;32.58;98520.28;5051656;28;20025;-50
2021/10/02 10:02:39;;;;;;;8.70;6.55;;;;;;;31.33;32.62;98519.97;5052918;28;20079;-50
2021/10/02 10:05:05;;;;;;;10.65;7.60;;;;;;;31.63;32.40;98509.63;5052832;28;20037;-50
2021/10/02 10:07:31;;;;;;;9.48;7.30;;;;;;;32.09;32.27;98522.13;5052810;28;20021;-50
2021/10/02 10:10:03;;;;;;;13.43;7.30;;;;;;;32.98;31.53;98497.16;5052792;28;20086;-50
2021/10/02 10:12:29;;;;;;;10.93;6.85;;;;;;;33.95;28.85;98488.31;5052759;28;20024;-50
2021/10/02 10:14:56;;;;;;;14.85;6.75;;;;;;;33.92;29.21;98486.28;5052611;28;20040;-50
2021/10/02 10:17:23;;;;;;;10.77;7.20;;;;;;;33.96;29.67;98483.63;5052594;28;20119;-50
2021/10/02 10:20:00;;;;;;;10.77;7.90;;;;;;;34.17;28.45;98469.66;5052553;28;20029;-48
2021/10/02 10:22:26;;;;;;;10.45;7.57;;;;;;;33.73;28.79;98472.72;5052609;28;20384;-47
2021/10/02 10:24:57;;;;;;;8.30;7.50;;;;;;;33.29;29.36;98468.31;5052514;28;20420;-47
2021/10/02 10:27:36;;;;;;;7.80;6.82;;;;;;;32.62;30.86;98460.22;5052500;28;20509;-48
2021/10/02 10:30:16;;;;;;;8.95;6.20;;;;;;;32.34;30.84;98471.97;5051139;28;20032;-47
2021/10/02 10:33:08;;;;;;;11.13;6.53;;;;;;;31.53;31.46;98466.72;5051093;28;20029;-50
2021/10/02 10:35:40;;;;;;;9.40;6.15;;;;;;;30.97;31.62;98461.16;5050844;28;20651;-49
2021/10/02 10:38:09;;;;;;;11.50;7.22;;;;;;;30.35;32.46;98469.28;5052320;28;20025;-50
2021/10/02 10:40:35;;;;;;;8.48;6.55;;;;;;;30.00;33.39;98464.25;5052119;28;20029;-50
2021/10/02 10:43:02;;;;;;;9.60;5.97;;;;;;;30.06;33.14;98451.28;5050352;28;20028;-49
2021/10/02 10:45:28;;;;;;;14.32;6.93;;;;;;;29.96;33.76;98459.81;5052137;28;20082;-49
2021/10/02 10:47:56;;;;;;;7.95;6.15;;;;;;;30.33;32.90;98441.75;5052080;28;20029;-49
2021/10/02 10:50:24;;;;;;;6.85;6.15;;;;;;;30.45;32.33;98447.19;5052056;28;20067;-50
2021/10/02 10:52:49;;;;;;;12.25;6.47;;;;;;;30.33;32.07;98444.47;5052257;28;20544;-50
2021/10/02 10:55:21;;;;;;;8.77;6.47;;;;;;;29.77;32.72;98438.69;5051849;28;20025;-50
2021/10/02 10:57:50;;;;;;;10.43;5.97;;;;;;;29.39;34.08;98429.63;5051947;28;20032;-49
2021/10/02 11:00:21;;;;;;;8.65;6.60;;;;;;;30.11;33.18;98399.66;5051890;28;20025;-50
2021/10/02 11:02:51;;;;;;;9.27;7.78;;;;;;;30.30;33.09;98428.06;5051859;28;20021;-50
2021/10/02 11:05:35;;;;;;;9.18;6.82;;;;;;;30.11;33.15;98425.94;5050523;28;20029;-50
2021/10/02 11:08:12;;;;;;;9.40;6.82;;;;;;;29.85;33.72;98416.97;5050561;28;20064;-49
2021/10/02 11:10:44;;;;;;;12.60;10.18;;;;;;;29.91;33.76;98408.63;5051844;28;20044;-49
2021/10/02 11:13:37;;;;;;;10.25;6.22;;;;;;;30.10;32.76;98406.16;5051848;28;20025;-49
2021/10/02 11:16:29;;;;;;;8.93;6.13;;;;;;;30.33;33.24;98411.97;5051431;28;20029;-49
2021/10/02 11:18:55;;;;;;;10.48;7.53;;;;;;;30.25;33.27;98412.84;5051688;28;20037;-50
2021/10/02 11:21:22;;;;;;;10.18;6.28;;;;;;;30.24;32.57;98408.56;5051623;28;20445;-50
2021/10/02 11:23:54;;;;;;;9.30;5.85;;;;;;;29.47;32.89;98415.22;5051674;28;20036;-50
2021/10/02 11:26:28;;;;;;;9.75;6.25;;;;;;;28.68;33.87;98423.09;5051361;28;20127;-50
2021/10/02 11:29:00;;;;;;;13.38;6.95;;;;;;;28.16;36.06;98409.03;5051706;28;20060;-49
2021/10/02 11:31:26;;;;;;;13.35;6.45;;;;;;;27.91;36.33;98395.31;5051584;28;20108;-50
2021/10/02 11:34:00;;;;;;;10.40;6.90;;;;;;;27.81;36.82;98407.22;5050265;28;20476;-49
2021/10/02 11:36:28;;;;;;;8.50;7.53;;;;;;;27.91;37.19;98403.41;5051489;28;20033;-50
2021/10/02 11:39:12;;;;;;;7.30;6.50;;;;;;;28.29;37.68;98405.31;5051507;28;20029;-49
2021/10/02 11:41:50;;;;;;;9.50;7.05;;;;;;;28.75;36.75;98384.75;5051513;28;20025;-50
2021/10/02 11:44:40;;;;;;;15.55;6.90;;;;;;;28.99;35.18;98391.44;5050198;28;20028;-50
2021/10/02 11:47:25;;;;;;;8.55;6.15;;;;;;;28.89;35.52;98365.59;5051789;28;20021;-49
2021/10/02 11:50:09;;;;;;;7.85;6.38;;;;;;;28.48;35.88;98376.00;5051420;28;20053;-51
2021/10/02 11:52:42;;;;;;;11.00;6.97;;;;;;;27.95;36.50;98365.78;5051382;28;20047;-50
2021/10/02 11:55:32;;;;;;;15.68;7.85;;;;;;;27.25;38.61;98390.94;5052282;28;20057;-49
2021/10/02 11:58:07;;;;;;;10.57;6.60;;;;;;;26.87;39.87;98380.75;5055231;28;20028;-50
2021/10/02 12:00:55;;;;;;;11.20;6.50;;;;;;;26.63;40.71;98369.66;5053876;28;20033;-49
2021/10/02 12:03:31;;;;;;;11.88;7.13;;;;;;;26.78;40.62;98354.94;5055233;28;20051;-50
2021/10/02 12:05:59;;;;;;;11.27;8.13;;;;;;;26.64;40.66;98353.19;5055116;28;20025;-49
2021/10/02 12:08:26;;;;;;;10.00;6.95;;;;;;;26.33;41.68;98355.94;5055081;28;20060;-49
2021/10/02 12:11:02;;;;;;;12.38;6.78;;;;;;;26.33;41.11;98353.25;5055069;28;20017;-49
2021/10/02 12:13:37;;;;;;;8.15;6.03;;;;;;;26.07;41.74;98348.56;5054989;28;20510;-49
2021/10/02 12:16:04;;;;;;;9.35;6.68;;;;;;;25.93;42.00;98352.47;5054906;28;20064;-50
2021/10/02 12:19:08;;;;;;;9.15;8.05;;;;;;;25.98;41.89;98352.31;5053601;28;20028;-49
2021/10/02 12:21:56;;;;;;;7.93;6.32;;;;;;;26.04;41.94;98354.56;5054770;28;20029;-50
2021/10/02 12:24:36;;;;;;;7.97;6.00;;;;;;;26.44;41.27;98349.16;5054834;28;20044;-49